Time;durP1;ratioP1;P1;durP2;ratioP2;P2;SDS_P1;SDS_P2;PMS_P1;PMS_P2;Temp;Humidity;BMP_temperature;BMP_pressure;BME280_temperature;BME280_humidity;BME280_pressure;Samples;Min_cycle;Max_cycle;Signal;HPM_P1;HPM_P2
2022/10/20 00:01:04;;;;;;;;;;;11.80;61.60;;;;;;5041050;28;88734;-37
2022/10/20 00:03:30;;;;;;;;;;;11.80;61.60;;;;;;5044926;28;86992;-38
2022/10/20 00:06:05;;;;;;;;;;;11.80;61.60;;;;;;5041675;28;87980;-37
2022/10/20 00:08:30;;;;;;;;;;;11.80;61.60;;;;;;5042178;28;87014;-37
2022/10/20 00:10:56;;;;;;;;;;;11.80;61.60;;;;;;5041986;28;87552;-37
2022/10/20 00:13:22;;;;;;;;;;;11.80;61.70;;;;;;5042976;28;88326;-37
2022/10/20 00:15:52;;;;;;;;;;;11.80;61.60;;;;;;5045395;28;87076;-37
2022/10/20 00:18:18;;;;;;;;;;;11.80;61.60;;;;;;5045654;28;87418;-37
2022/10/20 00:20:43;;;;;;;;;;;11.80;61.70;;;;;;5044893;28;88142;-37
2022/10/20 00:23:09;;;;;;;;;;;11.80;61.70;;;;;;5045112;28;86976;-38
2022/10/20 00:25:35;;;;;;;;;;;11.80;61.70;;;;;;5047270;28;87799;-37
2022/10/20 00:28:00;;;;;;;;;;;11.80;61.70;;;;;;5045466;28;87150;-38
2022/10/20 00:30:26;;;;;;;;;;;11.80;61.70;;;;;;5045504;28;87477;-37
2022/10/20 00:32:51;;;;;;;;;;;11.80;61.80;;;;;;5044872;28;88159;-38
2022/10/20 00:35:17;;;;;;;;;;;11.80;61.80;;;;;;5045327;28;87165;-37
2022/10/20 00:37:42;;;;;;;;;;;11.80;61.80;;;;;;5045160;28;86989;-37
2022/10/20 00:40:08;;;;;;;;;;;11.80;61.80;;;;;;5044733;28;88791;-38
2022/10/20 00:42:34;;;;;;;;;;;11.70;61.80;;;;;;5045680;28;86811;-37
2022/10/20 00:45:00;;;;;;;;;;;11.80;61.80;;;;;;5045215;28;86862;-38
2022/10/20 00:47:37;;;;;;;;;;;11.80;61.80;;;;;;5047269;28;88358;-37
2022/10/20 00:50:05;;;;;;;;;;;11.70;61.80;;;;;;5044643;27;87778;-38
2022/10/20 00:52:30;;;;;;;;;;;11.80;61.90;;;;;;5044280;28;90190;-37
2022/10/20 00:54:57;;;;;;;;;;;11.70;61.90;;;;;;5044751;28;87128;-37
2022/10/20 00:57:23;;;;;;;;;;;11.70;61.90;;;;;;5044793;27;86958;-37
2022/10/20 00:59:49;;;;;;;;;;;11.80;62.00;;;;;;5044358;28;88371;-37
2022/10/20 01:02:14;;;;;;;;;;;11.70;61.90;;;;;;5044880;28;86952;-37
2022/10/20 01:04:40;;;;;;;;;;;11.80;62.00;;;;;;5044762;27;87405;-39
2022/10/20 01:07:06;;;;;;;;;;;11.70;61.90;;;;;;5047484;28;87238;-37
2022/10/20 01:09:31;;;;;;;;;;;11.70;61.90;;;;;;5044983;27;86958;-37
2022/10/20 01:11:57;;;;;;;;;;;11.80;62.00;;;;;;5044395;28;87964;-38
2022/10/20 01:14:22;;;;;;;;;;;11.70;61.90;;;;;;5043996;28;88073;-38
2022/10/20 01:16:57;;;;;;;;;;;11.70;62.00;;;;;;5044171;28;88313;-38
2022/10/20 01:19:41;;;;;;;;;;;11.70;61.90;;;;;;5044126;28;87860;-38
2022/10/20 01:22:25;;;;;;;;;;;11.70;62.00;;;;;;5044613;28;87109;-37
2022/10/20 01:24:56;;;;;;;;;;;11.70;62.00;;;;;;5043832;27;86981;-37
2022/10/20 01:27:32;;;;;;;;;;;11.70;62.00;;;;;;5044066;28;88029;-37
2022/10/20 01:29:58;;;;;;;;;;;11.70;62.00;;;;;;5047288;28;87163;-37
2022/10/20 01:32:23;;;;;;;;;;;11.70;62.10;;;;;;5044482;28;86860;-37
2022/10/20 01:34:54;;;;;;;;;;;11.70;62.10;;;;;;5044257;28;86919;-37
2022/10/20 01:37:27;;;;;;;;;;;11.70;62.10;;;;;;5044465;27;87013;-38
2022/10/20 01:40:01;;;;;;;;;;;11.70;62.10;;;;;;5043252;28;89298;-38
2022/10/20 01:42:28;;;;;;;;;;;11.70;62.10;;;;;;5043833;28;87729;-37
2022/10/20 01:44:55;;;;;;;;;;;11.70;62.10;;;;;;5043955;27;87360;-38
2022/10/20 01:47:23;;;;;;;;;;;11.70;62.10;;;;;;5043529;28;87346;-37
2022/10/20 01:49:48;;;;;;;;;;;11.70;62.10;;;;;;5043888;28;87064;-37
2022/10/20 01:52:14;;;;;;;;;;;11.70;62.20;;;;;;5046314;27;87546;-37
2022/10/20 01:54:40;;;;;;;;;;;11.70;62.20;;;;;;5043833;28;87129;-37
2022/10/20 01:57:14;;;;;;;;;;;11.60;62.10;;;;;;5044374;28;87542;-37
2022/10/20 02:00:00;;;;;;;;;;;11.70;62.20;;;;;;5043560;28;87818;-37
2022/10/20 02:02:26;;;;;;;;;;;11.70;62.20;;;;;;5043448;28;87052;-37
2022/10/20 02:04:54;;;;;;;;;;;11.60;62.10;;;;;;5042859;27;88208;-37
2022/10/20 02:07:25;;;;;;;;;;;11.70;62.20;;;;;;5043192;28;88211;-37
2022/10/20 02:09:52;;;;;;;;;;;11.70;62.20;;;;;;5043487;28;87060;-37
2022/10/20 02:12:28;;;;;;;;;;;11.60;62.10;;;;;;5042248;28;89327;-37
2022/10/20 02:14:54;;;;;;;;;;;11.70;62.20;;;;;;5046298;28;87785;-37
2022/10/20 02:17:20;;;;;;;;;;;11.70;62.30;;;;;;5043059;27;87369;-37
2022/10/20 02:19:47;;;;;;;;;;;11.60;62.20;;;;;;5043082;28;88128;-37
2022/10/20 02:22:14;;;;;;;;;;;11.70;62.30;;;;;;5043776;28;86096;-37
2022/10/20 02:24:40;;;;;;;;;;;11.60;62.30;;;;;;5043017;28;86971;-37
2022/10/20 02:27:23;;;;;;;;;;;11.60;62.30;;;;;;5043080;28;88207;-37
2022/10/20 02:30:09;;;;;;;;;;;11.60;62.30;;;;;;5042414;28;88169;-37
2022/10/20 02:32:36;;;;;;;;;;;11.60;62.30;;;;;;5043376;27;88419;-37
2022/10/20 02:35:06;;;;;;;;;;;11.60;62.30;;;;;;5042841;28;88095;-37
2022/10/20 02:37:31;;;;;;;;;;;11.60;62.30;;;;;;5045738;28;87265;-37
2022/10/20 02:39:57;;;;;;;;;;;11.60;62.40;;;;;;5042800;28;88450;-37
2022/10/20 02:42:22;;;;;;;;;;;11.60;62.30;;;;;;5043087;28;87084;-38
2022/10/20 02:44:48;;;;;;;;;;;11.60;62.40;;;;;;5043352;28;87600;-37
2022/10/20 02:47:13;;;;;;;;;;;11.60;62.40;;;;;;5043410;28;87427;-38
2022/10/20 02:49:39;;;;;;;;;;;11.60;62.40;;;;;;5043257;28;87134;-36
2022/10/20 02:52:04;;;;;;;;;;;11.60;62.40;;;;;;5043083;28;87376;-37
2022/10/20 02:54:30;;;;;;;;;;;11.60;63.00;;;;;;5042185;28;89029;-37
2022/10/20 02:56:55;;;;;;;;;;;11.60;62.40;;;;;;5042905;28;87098;-37
2022/10/20 02:59:21;;;;;;;;;;;11.60;62.40;;;;;;5045487;28;87362;-37
2022/10/20 03:01:46;;;;;;;;;;;11.60;62.40;;;;;;5042989;28;87098;-37
2022/10/20 03:04:12;;;;;;;;;;;11.60;62.40;;;;;;5043020;27;87131;-37
2022/10/20 03:06:38;;;;;;;;;;;11.50;62.40;;;;;;5042109;28;88099;-37
2022/10/20 03:09:04;;;;;;;;;;;11.50;62.50;;;;;;5042811;28;87066;-38
2022/10/20 03:11:30;;;;;;;;;;;11.60;62.50;;;;;;5043289;27;87230;-37
2022/10/20 03:13:55;;;;;;;;;;;11.50;62.40;;;;;;5042449;28;88197;-37
2022/10/20 03:16:21;;;;;;;;;;;11.60;62.50;;;;;;5042659;28;87570;-38
2022/10/20 03:18:46;;;;;;;;;;;11.50;62.50;;;;;;5044757;27;87995;-38
2022/10/20 03:21:12;;;;;;;;;;;11.50;62.50;;;;;;5042758;28;87142;-37
2022/10/20 03:23:37;;;;;;;;;;;11.50;62.50;;;;;;5042010;28;87551;-37
2022/10/20 03:26:04;;;;;;;;;;;11.50;62.50;;;;;;5042341;28;87119;-38
2022/10/20 03:28:29;;;;;;;;;;;11.50;62.60;;;;;;5042426;28;87234;-37
2022/10/20 03:30:55;;;;;;;;;;;11.50;62.50;;;;;;5042585;28;87371;-37
2022/10/20 03:33:21;;;;;;;;;;;11.50;62.50;;;;;;5042229;28;87876;-37
2022/10/20 03:35:46;;;;;;;;;;;11.50;62.60;;;;;;5043061;28;86174;-37
2022/10/20 03:38:12;;;;;;;;;;;11.50;62.60;;;;;;5042544;28;87020;-37
2022/10/20 03:40:37;;;;;;;;;;;11.50;62.60;;;;;;5044783;28;88220;-37
2022/10/20 03:43:03;;;;;;;;;;;11.50;62.70;;;;;;5041541;28;88037;-37
2022/10/20 03:45:28;;;;;;;;;;;11.50;62.60;;;;;;5041852;28;87576;-37
2022/10/20 03:47:54;;;;;;;;;;;11.50;62.70;;;;;;5043195;27;86917;-38
2022/10/20 03:50:19;;;;;;;;;;;11.50;62.70;;;;;;5045943;28;87428;-37
2022/10/20 03:52:46;;;;;;;;;;;11.50;62.70;;;;;;5045733;28;88261;-37
2022/10/20 03:55:12;;;;;;;;;;;11.50;62.70;;;;;;5046002;28;87085;-37
2022/10/20 03:57:37;;;;;;;;;;;11.50;62.70;;;;;;5045663;28;87387;-37
2022/10/20 04:00:03;;;;;;;;;;;11.50;62.70;;;;;;5045645;28;87301;-37
2022/10/20 04:02:33;;;;;;;;;;;11.40;62.60;;;;;;5046971;28;87129;-37
2022/10/20 04:04:59;;;;;;;;;;;11.50;62.70;;;;;;5045189;28;87863;-37
2022/10/20 04:07:24;;;;;;;;;;;11.50;62.70;;;;;;5044991;28;88751;-37
2022/10/20 04:09:50;;;;;;;;;;;11.50;62.70;;;;;;5045605;28;88474;-37
2022/10/20 04:12:15;;;;;;;;;;;11.50;62.70;;;;;;5045260;28;87290;-37
2022/10/20 04:14:41;;;;;;;;;;;11.40;62.60;;;;;;5045287;28;87090;-37
2022/10/20 04:17:06;;;;;;;;;;;11.40;62.60;;;;;;5045646;27;87323;-37
2022/10/20 04:19:32;;;;;;;;;;;11.40;62.60;;;;;;5045035;28;87942;-37
2022/10/20 04:21:57;;;;;;;;;;;11.50;62.70;;;;;;5045541;28;87108;-37
2022/10/20 04:24:23;;;;;;;;;;;11.40;62.60;;;;;;5047793;28;87501;-37
2022/10/20 04:26:48;;;;;;;;;;;11.40;62.70;;;;;;5045418;28;87465;-37
2022/10/20 04:29:14;;;;;;;;;;;11.40;62.60;;;;;;5045636;28;87480;-37
2022/10/20 04:31:39;;;;;;;;;;;11.40;62.60;;;;;;5044250;28;89209;-37
2022/10/20 04:34:05;;;;;;;;;;;11.40;62.60;;;;;;5045210;28;87711;-36
2022/10/20 04:36:30;;;;;;;;;;;11.40;62.60;;;;;;5045385;28;87517;-37
2022/10/20 04:38:56;;;;;;;;;;;11.40;63.30;;;;;;5044892;28;87977;-38
2022/10/20 04:41:21;;;;;;;;;;;11.40;62.70;;;;;;5045143;28;87183;-37
2022/10/20 04:43:53;;;;;;;;;;;11.30;62.60;;;;;;5044939;28;87542;-37
2022/10/20 04:46:19;;;;;;;;;;;11.40;62.60;;;;;;5047792;28;87948;-37
2022/10/20 04:48:44;;;;;;;;;;;11.40;62.60;;;;;;5045462;28;86746;-37
2022/10/20 04:51:11;;;;;;;;;;;11.40;62.70;;;;;;5044689;28;88161;-37
2022/10/20 04:53:36;;;;;;;;;;;11.30;62.60;;;;;;5044827;28;86990;-37
2022/10/20 04:56:03;;;;;;;;;;;11.30;62.60;;;;;;5044314;28;87835;-38
2022/10/20 04:58:28;;;;;;;;;;;11.40;62.60;;;;;;5043876;27;87865;-37
2022/10/20 05:00:58;;;;;;;;;;;11.40;62.60;;;;;;5044637;28;87049;-37
2022/10/20 05:03:24;;;;;;;;;;;11.30;62.60;;;;;;5044467;28;87556;-37
2022/10/20 05:05:49;;;;;;;;;;;11.30;62.60;;;;;;5044594;28;88070;-37
2022/10/20 05:08:15;;;;;;;;;;;11.30;62.60;;;;;;5047104;28;87266;-37
2022/10/20 05:10:40;;;;;;;;;;;11.30;62.60;;;;;;5044518;28;87624;-37
2022/10/20 05:13:06;;;;;;;;;;;11.30;62.60;;;;;;5044685;28;86333;-37
2022/10/20 05:15:31;;;;;;;;;;;11.30;62.60;;;;;;5044768;28;87222;-37
2022/10/20 05:17:57;;;;;;;;;;;11.30;62.60;;;;;;5044245;28;88006;-37
2022/10/20 05:20:22;;;;;;;;;;;11.30;62.60;;;;;;5043833;28;88039;-37
2022/10/20 05:22:48;;;;;;;;;;;11.30;62.70;;;;;;5044474;28;86946;-36
2022/10/20 05:25:13;;;;;;;;;;;11.30;62.60;;;;;;5043682;28;88048;-37
2022/10/20 05:27:39;;;;;;;;;;;11.30;62.60;;;;;;5047120;28;87143;-37
2022/10/20 05:30:04;;;;;;;;;;;11.30;62.50;;;;;;5044238;28;87972;-38
2022/10/20 05:32:30;;;;;;;;;;;11.30;62.60;;;;;;5044452;28;87066;-37
2022/10/20 05:34:55;;;;;;;;;;;11.30;62.60;;;;;;5044557;28;87236;-37
2022/10/20 05:37:21;;;;;;;;;;;11.30;62.60;;;;;;5044665;28;87156;-37
2022/10/20 05:39:46;;;;;;;;;;;11.30;62.60;;;;;;5044306;28;87495;-37
2022/10/20 05:42:12;;;;;;;;;;;11.30;62.60;;;;;;5044206;28;87582;-38
2022/10/20 05:44:37;;;;;;;;;;;11.20;62.50;;;;;;5043037;28;89050;-37
2022/10/20 05:47:03;;;;;;;;;;;11.20;62.50;;;;;;5044355;28;87103;-37
2022/10/20 05:49:28;;;;;;;;;;;11.20;62.50;;;;;;5046942;28;87412;-37
2022/10/20 05:51:54;;;;;;;;;;;11.20;62.50;;;;;;5044043;28;86962;-37
2022/10/20 05:54:20;;;;;;;;;;;11.20;62.50;;;;;;5044221;27;87466;-38
2022/10/20 05:56:45;;;;;;;;;;;11.20;62.50;;;;;;5043512;28;88060;-37
2022/10/20 05:59:11;;;;;;;;;;;11.20;62.50;;;;;;5043702;28;87087;-37
2022/10/20 06:01:48;;;;;;;;;;;11.20;62.50;;;;;;5044347;27;87206;-37
2022/10/20 06:04:15;;;;;;;;;;;11.20;62.50;;;;;;5043524;28;87981;-37
2022/10/20 06:06:41;;;;;;;;;;;11.20;62.60;;;;;;5043475;28;87054;-37
2022/10/20 06:09:07;;;;;;;;;;;11.20;62.60;;;;;;5043195;27;87978;-37
2022/10/20 06:11:33;;;;;;;;;;;11.20;62.60;;;;;;5045197;27;87767;-37
2022/10/20 06:13:58;;;;;;;;;;;11.20;62.60;;;;;;5043633;27;87253;-37
2022/10/20 06:16:25;;;;;;;;;;;11.20;62.60;;;;;;5043548;28;87247;-37
2022/10/20 06:18:50;;;;;;;;;;;11.20;62.60;;;;;;5043585;28;87079;-37
2022/10/20 06:21:20;;;;;;;;;;;11.20;63.20;;;;;;5043656;27;87334;-37
2022/10/20 06:23:46;;;;;;;;;;;11.20;62.70;;;;;;5042808;28;87964;-37
2022/10/20 06:26:13;;;;;;;;;;;11.20;62.70;;;;;;5043733;28;86529;-36
2022/10/20 06:28:39;;;;;;;;;;;11.20;62.60;;;;;;5043440;28;86911;-37
2022/10/20 06:31:12;;;;;;;;;;;11.20;62.60;;;;;;5042909;28;88020;-37
2022/10/20 06:33:38;;;;;;;;;;;11.20;62.70;;;;;;5045634;28;88067;-37
2022/10/20 06:36:03;;;;;;;;;;;11.20;62.70;;;;;;5042998;28;87062;-37
2022/10/20 06:38:29;;;;;;;;;;;11.20;62.60;;;;;;5042893;28;87045;-37
2022/10/20 06:40:54;;;;;;;;;;;11.10;62.70;;;;;;5043399;28;87477;-37
2022/10/20 06:43:20;;;;;;;;;;;11.10;62.70;;;;;;5042768;28;88072;-37
2022/10/20 06:46:04;;;;;;;;;;;11.20;62.70;;;;;;5043262;28;87142;-37
2022/10/20 06:48:30;;;;;;;;;;;11.20;62.60;;;;;;5043227;27;87117;-37
2022/10/20 06:50:56;;;;;;;;;;;11.20;62.60;;;;;;5043337;28;86912;-36
2022/10/20 06:53:21;;;;;;;;;;;11.20;62.60;;;;;;5042801;28;87139;-37
2022/10/20 06:55:56;;;;;;;;;;;11.10;62.70;;;;;;5045737;27;87241;-37
2022/10/20 06:58:21;;;;;;;;;;;11.20;62.70;;;;;;5042336;28;88029;-37
2022/10/20 07:00:47;;;;;;;;;;;11.20;62.60;;;;;;5043055;27;88379;-36
2022/10/20 07:03:12;;;;;;;;;;;11.20;62.70;;;;;;5042680;28;88147;-37
2022/10/20 07:05:38;;;;;;;;;;;11.20;62.80;;;;;;5042707;28;87132;-37
2022/10/20 07:08:03;;;;;;;;;;;11.10;62.80;;;;;;5042733;28;87805;-37
2022/10/20 07:10:47;;;;;;;;;;;11.20;62.80;;;;;;5042538;28;87354;-37
2022/10/20 07:13:13;;;;;;;;;;;11.10;62.90;;;;;;5042888;27;87209;-38
2022/10/20 07:15:38;;;;;;;;;;;11.20;62.90;;;;;;5046031;28;87439;-38
2022/10/20 07:18:04;;;;;;;;;;;11.20;62.80;;;;;;5042931;28;87100;-37
2022/10/20 07:20:29;;;;;;;;;;;11.20;62.80;;;;;;5042845;28;87054;-37
2022/10/20 07:22:56;;;;;;;;;;;11.20;62.70;;;;;;5041475;27;89097;-37
2022/10/20 07:25:21;;;;;;;;;;;11.20;62.70;;;;;;5042241;28;86992;-37
2022/10/20 07:27:47;;;;;;;;;;;11.10;62.80;;;;;;5042772;28;87691;-37
2022/10/20 07:30:13;;;;;;;;;;;11.20;62.90;;;;;;5042270;28;87831;-37
2022/10/20 07:32:38;;;;;;;;;;;11.20;62.80;;;;;;5042591;28;86972;-37
2022/10/20 07:35:04;;;;;;;;;;;11.20;62.90;;;;;;5042639;28;87515;-36
2022/10/20 07:37:30;;;;;;;;;;;11.20;62.90;;;;;;5044987;28;89694;-37
2022/10/20 07:39:55;;;;;;;;;;;11.20;62.90;;;;;;5042958;28;86451;-37
2022/10/20 07:42:21;;;;;;;;;;;11.20;63.00;;;;;;5042060;28;88124;-37
2022/10/20 07:44:46;;;;;;;;;;;11.10;63.40;;;;;;5042396;28;87030;-37
2022/10/20 07:47:12;;;;;;;;;;;11.20;63.30;;;;;;5041939;28;87885;-37
2022/10/20 07:49:37;;;;;;;;;;;11.20;63.20;;;;;;5041718;28;88137;-37
2022/10/20 07:52:03;;;;;;;;;;;11.20;63.10;;;;;;5042248;28;87075;-36
2022/10/20 07:54:28;;;;;;;;;;;11.20;63.30;;;;;;5042420;27;87823;-37
2022/10/20 07:56:54;;;;;;;;;;;11.20;63.20;;;;;;5041811;28;88098;-37
2022/10/20 07:59:19;;;;;;;;;;;11.20;63.10;;;;;;5044970;28;87073;-37
2022/10/20 08:01:45;;;;;;;;;;;11.20;63.20;;;;;;5041518;28;88071;-37
2022/10/20 08:04:11;;;;;;;;;;;11.20;63.30;;;;;;5042389;28;86420;-37
2022/10/20 08:06:36;;;;;;;;;;;11.20;63.40;;;;;;5041850;28;86995;-37
2022/10/20 08:09:02;;;;;;;;;;;11.20;63.50;;;;;;5041627;28;87252;-37
2022/10/20 08:11:27;;;;;;;;;;;11.20;63.50;;;;;;5041304;28;88005;-37
2022/10/20 08:13:53;;;;;;;;;;;11.20;63.40;;;;;;5041793;28;88279;-37
2022/10/20 08:16:19;;;;;;;;;;;11.20;63.40;;;;;;5041143;28;88191;-37
2022/10/20 08:18:44;;;;;;;;;;;11.20;63.30;;;;;;5041769;28;87339;-37
2022/10/20 08:21:17;;;;;;;;;;;11.20;63.50;;;;;;5044273;28;87274;-36
2022/10/20 08:23:43;;;;;;;;;;;11.20;63.50;;;;;;5041315;28;87255;-37
2022/10/20 08:26:10;;;;;;;;;;;11.20;63.70;;;;;;5040325;28;90342;-37
2022/10/20 08:28:36;;;;;;;;;;;11.20;63.60;;;;;;5041837;28;87203;-37
2022/10/20 08:31:02;;;;;;;;;;;11.30;63.60;;;;;;5041701;28;87556;-38
2022/10/20 08:33:28;;;;;;;;;;;11.20;63.50;;;;;;5041789;27;86971;-38
2022/10/20 08:35:53;;;;;;;;;;;11.30;63.50;;;;;;5044135;28;88965;-38
2022/10/20 08:38:19;;;;;;;;;;;11.30;63.60;;;;;;5045157;28;87398;-37
2022/10/20 08:40:44;;;;;;;;;;;11.30;63.60;;;;;;5045201;28;87536;-38
2022/10/20 08:43:16;;;;;;;;;;;11.30;64.10;;;;;;5047745;28;88321;-37
2022/10/20 08:45:42;;;;;;;;;;;11.30;63.50;;;;;;5044893;28;87399;-38
2022/10/20 08:48:13;;;;;;;;;;;11.30;63.50;;;;;;5044661;28;87961;-37
2022/10/20 08:50:42;;;;;;;;;;;11.30;63.50;;;;;;5044684;27;87045;-37
2022/10/20 08:53:08;;;;;;;;;;;11.30;63.50;;;;;;5045301;27;86989;-37
2022/10/20 08:55:34;;;;;;;;;;;11.30;63.50;;;;;;5044622;28;88148;-37
2022/10/20 08:58:04;;;;;;;;;;;11.30;63.50;;;;;;5044625;28;87119;-37
2022/10/20 09:00:30;;;;;;;;;;;11.30;63.40;;;;;;5044359;28;88135;-37
2022/10/20 09:02:58;;;;;;;;;;;11.30;63.50;;;;;;5044404;28;87858;-37
2022/10/20 09:05:25;;;;;;;;;;;11.30;63.50;;;;;;5047334;28;87133;-37
2022/10/20 09:07:51;;;;;;;;;;;11.40;63.40;;;;;;5044035;28;87906;-37
2022/10/20 09:10:17;;;;;;;;;;;11.30;63.30;;;;;;5044731;28;87010;-37
2022/10/20 09:12:43;;;;;;;;;;;11.40;63.30;;;;;;5044594;28;87308;-37
2022/10/20 09:15:13;;;;;;;;;;;11.40;63.30;;;;;;5044203;28;88489;-37
2022/10/20 09:17:40;;;;;;;;;;;11.40;63.30;;;;;;5044631;28;86517;-37
2022/10/20 09:20:11;;;;;;;;;;;11.40;63.20;;;;;;5044482;28;86928;-37
2022/10/20 09:22:37;;;;;;;;;;;11.40;63.10;;;;;;5044248;28;88173;-37
2022/10/20 09:25:02;;;;;;;;;;;11.40;63.30;;;;;;5046602;28;88151;-37
2022/10/20 09:27:28;;;;;;;;;;;11.40;63.10;;;;;;5044060;28;88112;-38
2022/10/20 09:29:53;;;;;;;;;;;11.40;63.10;;;;;;5044497;28;86964;-37
2022/10/20 09:32:30;;;;;;;;;;;11.40;63.10;;;;;;5044215;28;87400;-38
2022/10/20 09:35:31;;;;;;;;;;;11.40;63.10;;;;;;5044143;28;88019;-37
2022/10/20 09:37:59;;;;;;;;;;;11.40;63.10;;;;;;5001574;28;87150;-37
2022/10/20 09:40:25;;;;;;;;;;;11.40;63.30;;;;;;5035687;28;87328;-37
2022/10/20 09:43:11;;;;;;;;;;;11.50;63.40;;;;;;5044426;28;87243;-37
2022/10/20 09:45:38;;;;;;;;;;;11.40;63.40;;;;;;5044181;27;86973;-37
2022/10/20 09:48:07;;;;;;;;;;;11.50;63.40;;;;;;5046625;28;87546;-37
2022/10/20 09:50:34;;;;;;;;;;;11.50;63.20;;;;;;5043052;28;88034;-37
2022/10/20 09:53:03;;;;;;;;;;;11.50;63.20;;;;;;5043540;27;88804;-37
2022/10/20 09:55:36;;;;;;;;;;;11.50;63.10;;;;;;5043471;28;87982;-38
2022/10/20 09:58:03;;;;;;;;;;;11.50;63.40;;;;;;5043933;28;87046;-37
2022/10/20 10:00:30;;;;;;;;;;;11.50;63.40;;;;;;5043889;27;87027;-38
2022/10/20 10:03:08;;;;;;;;;;;11.50;63.40;;;;;;5043380;27;88157;-37
2022/10/20 10:05:34;;;;;;;;;;;11.50;63.20;;;;;;5043853;28;87103;-37
2022/10/20 10:07:59;;;;;;;;;;;11.50;63.20;;;;;;5044170;27;88142;-38
2022/10/20 10:10:27;;;;;;;;;;;11.50;63.30;;;;;;5046436;28;87849;-37
2022/10/20 10:12:54;;;;;;;;;;;11.60;63.30;;;;;;5043815;28;87428;-37
2022/10/20 10:15:35;;;;;;;;;;;11.50;63.30;;;;;;5042597;28;89483;-38
2022/10/20 10:18:11;;;;;;;;;;;11.50;63.30;;;;;;5043496;28;87443;-37
2022/10/20 10:20:38;;;;;;;;;;;11.60;63.30;;;;;;5043968;28;87190;-37
2022/10/20 10:23:17;;;;;;;;;;;11.60;63.30;;;;;;5043401;28;87968;-37
2022/10/20 10:25:42;;;;;;;;;;;11.60;63.40;;;;;;5043635;28;86989;-37
2022/10/20 10:28:28;;;;;;;;;;;11.60;63.60;;;;;;5043891;28;87561;-37
2022/10/20 10:31:04;;;;;;;;;;;11.60;63.50;;;;;;5043149;27;87084;-37
2022/10/20 10:33:32;;;;;;;;;;;11.60;63.50;;;;;;5047046;28;86184;-38
2022/10/20 10:36:00;;;;;;;;;;;11.60;63.50;;;;;;5043137;28;88048;-37
2022/10/20 10:38:26;;;;;;;;;;;11.60;63.50;;;;;;5043421;28;86957;-37
2022/10/20 10:40:51;;;;;;;;;;;11.60;63.60;;;;;;5042901;27;87912;-37
2022/10/20 10:43:35;;;;;;;;;;;11.60;63.60;;;;;;5042991;28;88155;-37
2022/10/20 10:46:05;;;;;;;;;;;11.60;63.50;;;;;;5043343;27;87246;-38
2022/10/20 10:48:36;;;;;;;;;;;11.70;63.60;;;;;;5043130;27;87393;-37
2022/10/20 10:51:04;;;;;;;;;;;11.60;63.50;;;;;;5043040;28;87232;-37
2022/10/20 10:53:41;;;;;;;;;;;11.60;63.50;;;;;;5043013;28;87085;-37
2022/10/20 10:56:26;;;;;;;;;;;11.70;63.60;;;;;;5045565;27;87709;-37
2022/10/20 10:58:57;;;;;;;;;;;11.70;63.50;;;;;;5043708;27;86467;-37
2022/10/20 11:01:37;;;;;;;;;;;11.70;63.50;;;;;;5043123;27;87560;-37
2022/10/20 11:04:12;;;;;;;;;;;11.70;63.50;;;;;;5042343;28;87566;-37
2022/10/20 11:06:50;;;;;;;;;;;11.70;63.40;;;;;;5042432;28;88230;-37
2022/10/20 11:09:31;;;;;;;;;;;11.70;63.50;;;;;;5042746;27;88404;-37
2022/10/20 11:12:08;;;;;;;;;;;11.70;63.40;;;;;;5042749;28;88251;-38
2022/10/20 11:14:40;;;;;;;;;;;11.70;63.40;;;;;;5042678;28;87595;-37
2022/10/20 11:17:08;;;;;;;;;;;11.80;63.60;;;;;;5043164;27;87481;-38
2022/10/20 11:19:34;;;;;;;;;;;11.70;64.00;;;;;;5045314;28;88295;-37
2022/10/20 11:22:15;;;;;;;;;;;11.80;64.00;;;;;;5042939;28;87070;-37
2022/10/20 11:24:54;;;;;;;;;;;11.80;63.80;;;;;;5042728;28;87593;-37
2022/10/20 11:27:31;;;;;;;;;;;11.80;63.80;;;;;;5042562;28;87179;-38
2022/10/20 11:30:07;;;;;;;;;;;11.80;63.90;;;;;;5042960;27;87303;-37
2022/10/20 11:32:32;;;;;;;;;;;11.80;63.90;;;;;;5041889;28;88971;-37
2022/10/20 11:34:58;;;;;;;;;;;11.80;63.90;;;;;;5042492;28;87510;-37
2022/10/20 11:37:25;;;;;;;;;;;11.80;63.90;;;;;;5042574;28;87338;-37
2022/10/20 11:40:01;;;;;;;;;;;11.80;63.80;;;;;;5044887;28;87399;-37
2022/10/20 11:42:50;;;;;;;;;;;11.80;63.90;;;;;;5042724;28;87427;-37
2022/10/20 11:45:34;;;;;;;;;;;11.90;63.90;;;;;;5021474;28;87819;-37
2022/10/20 11:48:10;;;;;;;;;;;11.90;63.90;;;;;;5042259;27;87198;-37
2022/10/20 11:50:36;;;;;;;;;;;11.90;63.90;;;;;;5042618;27;87215;-37
2022/10/20 11:53:16;;;;;;;;;;;11.90;63.90;;;;;;5042324;28;88012;-37
2022/10/20 11:55:44;;;;;;;;;;;11.90;64.00;;;;;;5042335;28;86963;-37
2022/10/20 11:58:12;;;;;;;;;;;11.90;63.90;;;;;;5041871;28;87858;-37
2022/10/20 12:00:50;;;;;;;;;;;11.90;63.90;;;;;;5041715;28;88031;-37
2022/10/20 12:03:15;;;;;;;;;;;11.90;64.00;;;;;;5045438;28;86992;-37
2022/10/20 12:06:00;;;;;;;;;;;11.90;63.90;;;;;;5041829;28;87623;-37
2022/10/20 12:08:31;;;;;;;;;;;11.90;63.80;;;;;;5042092;27;87103;-37
2022/10/20 12:11:09;;;;;;;;;;;12.00;63.90;;;;;;5045717;28;87458;-37
2022/10/20 12:13:40;;;;;;;;;;;12.00;63.90;;;;;;5045307;28;87003;-37
2022/10/20 12:16:06;;;;;;;;;;;12.00;63.90;;;;;;5046222;28;86478;-37
2022/10/20 12:18:32;;;;;;;;;;;12.00;64.00;;;;;;5045641;27;86860;-37
2022/10/20 12:21:00;;;;;;;;;;;12.00;63.90;;;;;;5045264;28;88170;-38
2022/10/20 12:23:56;;;;;;;;;;;12.00;63.90;;;;;;5044474;28;87932;-38
2022/10/20 12:26:31;;;;;;;;;;;12.00;63.80;;;;;;5048270;28;87615;-38
2022/10/20 12:29:05;;;;;;;;;;;12.00;63.90;;;;;;5045571;28;87184;-37
2022/10/20 12:31:49;;;;;;;;;;;12.00;63.80;;;;;;5045436;27;87385;-37
2022/10/20 12:34:21;;;;;;;;;;;12.00;63.80;;;;;;5045020;27;88053;-37
2022/10/20 12:36:47;;;;;;;;;;;12.00;63.80;;;;;;5045338;28;87122;-37
2022/10/20 12:39:15;;;;;;;;;;;12.10;63.80;;;;;;5045226;28;87363;-37
2022/10/20 12:41:43;;;;;;;;;;;12.10;63.70;;;;;;5045183;28;87284;-37
2022/10/20 12:44:15;;;;;;;;;;;12.10;63.70;;;;;;5045057;28;87091;-37
2022/10/20 12:46:43;;;;;;;;;;;12.10;63.70;;;;;;5045043;27;87091;-37
2022/10/20 12:49:11;;;;;;;;;;;12.10;63.70;;;;;;5046936;28;89039;-37
2022/10/20 12:51:39;;;;;;;;;;;12.10;63.80;;;;;;5044983;28;88492;-37
2022/10/20 12:54:23;;;;;;;;;;;12.10;63.80;;;;;;5044495;28;88167;-37
2022/10/20 12:56:49;;;;;;;;;;;12.20;63.80;;;;;;5044862;28;87070;-37
2022/10/20 12:59:18;;;;;;;;;;;12.20;63.70;;;;;;5044843;27;87361;-38
2022/10/20 13:02:02;;;;;;;;;;;12.10;63.70;;;;;;5044567;28;88173;-37
2022/10/20 13:04:46;;;;;;;;;;;12.10;63.80;;;;;;5044812;27;87072;-37
2022/10/20 13:07:11;;;;;;;;;;;12.20;63.80;;;;;;5045487;27;87398;-37
2022/10/20 13:09:53;;;;;;;;;;;12.20;63.60;;;;;;5044327;28;88141;-37
2022/10/20 13:12:25;;;;;;;;;;;12.20;63.80;;;;;;5048056;28;87054;-37
2022/10/20 13:14:54;;;;;;;;;;;12.20;63.70;;;;;;5043652;28;88904;-38
2022/10/20 13:17:26;;;;;;;;;;;12.20;63.80;;;;;;5044698;28;87074;-38
2022/10/20 13:19:58;;;;;;;;;;;12.20;63.70;;;;;;5044692;27;88055;-38
2022/10/20 13:22:36;;;;;;;;;;;12.20;63.70;;;;;;5044492;28;88263;-37
2022/10/20 13:25:04;;;;;;;;;;;12.20;63.60;;;;;;5044116;28;87090;-37
2022/10/20 13:27:29;;;;;;;;;;;12.20;63.70;;;;;;5044622;27;87055;-38
2022/10/20 13:29:55;;;;;;;;;;;12.20;63.70;;;;;;5044361;28;87020;-37
2022/10/20 13:32:30;;;;;;;;;;;12.20;63.70;;;;;;5045072;28;86369;-37
2022/10/20 13:34:56;;;;;;;;;;;12.30;63.70;;;;;;5046922;27;86960;-37
2022/10/20 13:37:24;;;;;;;;;;;12.30;63.50;;;;;;5044590;28;87062;-37
2022/10/20 13:39:50;;;;;;;;;;;12.30;64.30;;;;;;5044092;27;87772;-37
2022/10/20 13:42:34;;;;;;;;;;;12.30;63.60;;;;;;5044057;28;87451;-37
2022/10/20 13:45:09;;;;;;;;;;;12.30;63.50;;;;;;5044246;27;87647;-38
2022/10/20 13:47:41;;;;;;;;;;;12.30;63.60;;;;;;5044501;28;87714;-37
2022/10/20 13:50:15;;;;;;;;;;;12.30;63.60;;;;;;5044033;28;88178;-38
2022/10/20 13:52:45;;;;;;;;;;;12.40;63.50;;;;;;5043994;28;87058;-37
2022/10/20 13:55:15;;;;;;;;;;;12.40;63.40;;;;;;5046778;27;87040;-38
2022/10/20 13:57:46;;;;;;;;;;;12.40;63.40;;;;;;5044237;28;86324;-37
2022/10/20 14:00:15;;;;;;;;;;;12.40;63.20;;;;;;5044295;27;87073;-37
2022/10/20 14:02:50;;;;;;;;;;;12.40;63.20;;;;;;5043619;28;88181;-38
2022/10/20 14:05:19;;;;;;;;;;;12.40;63.10;;;;;;5043362;28;87928;-37
2022/10/20 14:07:44;;;;;;;;;;;12.40;63.40;;;;;;5043516;27;87263;-37
2022/10/20 14:10:21;;;;;;;;;;;12.40;63.20;;;;;;5043390;28;87117;-37
2022/10/20 14:12:46;;;;;;;;;;;12.40;63.20;;;;;;5043800;28;87103;-37
2022/10/20 14:15:15;;;;;;;;;;;12.40;63.10;;;;;;5043929;27;87513;-37
2022/10/20 14:17:41;;;;;;;;;;;12.40;63.30;;;;;;5046270;28;87886;-37
2022/10/20 14:20:20;;;;;;;;;;;12.50;63.50;;;;;;5042261;28;88214;-37
2022/10/20 14:22:46;;;;;;;;;;;12.40;63.30;;;;;;5043484;28;87476;-37
2022/10/20 14:25:11;;;;;;;;;;;12.50;63.30;;;;;;5043152;28;87175;-38